Time;durP1;ratioP1;P1;durP2;ratioP2;P2;SDS_P1;SDS_P2;PMS_P1;PMS_P2;Temp;Humidity;BMP_temperature;BMP_pressure;BME280_temperature;BME280_humidity;BME280_pressure;Samples;Min_cycle;Max_cycle;Signal;HPM_P1;HPM_P2
2023/04/15 00:01:38;;;;;;;1999.90;999.90;;;8.50;99.90;;;;;;5104398;28;20477;-76
2023/04/15 00:04:05;;;;;;;1999.90;999.90;;;8.40;99.90;;;;;;5110215;28;20469;-76
2023/04/15 00:06:32;;;;;;;1999.90;999.90;;;8.40;99.90;;;;;;5090277;28;20445;-78
2023/04/15 00:09:00;;;;;;;1999.90;999.90;;;8.30;99.90;;;;;;5091211;28;20483;-75
2023/04/15 00:11:26;;;;;;;1999.90;999.90;;;8.30;99.90;;;;;;5090427;28;20432;-78
2023/04/15 00:13:53;;;;;;;1999.90;999.90;;;8.30;99.90;;;;;;5089826;28;20889;-77
2023/04/15 00:16:20;;;;;;;1999.90;999.90;;;8.30;99.90;;;;;;5088284;28;20447;-76
2023/04/15 00:18:46;;;;;;;1999.90;999.90;;;8.30;99.90;;;;;;5090860;28;20453;-77
2023/04/15 00:21:13;;;;;;;1999.90;999.90;;;8.20;99.90;;;;;;5093676;28;20518;-76
2023/04/15 00:23:40;;;;;;;1999.90;999.90;;;8.20;99.90;;;;;;5094896;28;20451;-75
2023/04/15 00:26:08;;;;;;;1999.90;999.90;;;8.20;99.90;;;;;;5092858;28;20459;-78
2023/04/15 00:28:35;;;;;;;1999.90;999.90;;;8.20;99.90;;;;;;5094337;28;20429;-77
2023/04/15 00:31:02;;;;;;;1999.90;999.90;;;8.30;99.90;;;;;;5094387;28;20444;-77
2023/04/15 00:33:29;;;;;;;1999.90;999.90;;;8.30;99.90;;;;;;5094919;28;20515;-76
2023/04/15 00:35:56;;;;;;;1999.90;999.90;;;8.30;99.90;;;;;;5090024;28;20430;-78
2023/04/15 00:38:23;;;;;;;1999.90;999.90;;;8.30;99.90;;;;;;5093902;28;20431;-76
2023/04/15 00:40:49;;;;;;;1999.90;999.90;;;8.30;99.90;;;;;;5095163;28;20437;-77
2023/04/15 00:43:18;;;;;;;1999.90;999.90;;;8.20;99.90;;;;;;5094777;28;20421;-76
2023/04/15 00:45:45;;;;;;;1999.90;999.90;;;8.20;99.90;;;;;;5092710;28;20422;-75
2023/04/15 00:48:13;;;;;;;1999.90;999.90;;;8.20;99.90;;;;;;5094294;28;20475;-79
2023/04/15 00:50:39;;;;;;;1999.90;999.90;;;8.10;99.90;;;;;;5093166;28;20433;-76
2023/04/15 00:53:06;;;;;;;1999.90;999.90;;;8.10;99.90;;;;;;5094378;28;20478;-75
2023/04/15 00:55:32;;;;;;;1999.90;999.90;;;8.10;99.90;;;;;;5092823;28;20533;-74
2023/04/15 00:57:59;;;;;;;1999.90;999.90;;;8.10;99.90;;;;;;5094436;28;20417;-76
2023/04/15 01:00:27;;;;;;;1999.90;999.90;;;8.10;99.90;;;;;;5093921;28;20425;-76
2023/04/15 01:02:54;;;;;;;1999.90;999.90;;;8.10;99.90;;;;;;5096043;28;20426;-77
2023/04/15 01:05:21;;;;;;;1999.90;999.90;;;8.20;99.90;;;;;;5093697;28;20482;-75
2023/04/15 01:07:48;;;;;;;1999.90;999.90;;;8.00;99.90;;;;;;5092024;28;20425;-78
2023/04/15 01:10:15;;;;;;;1999.90;999.90;;;7.90;99.90;;;;;;5093819;28;20488;-76
2023/04/15 01:12:42;;;;;;;1999.90;999.90;;;8.00;99.90;;;;;;5094544;28;20476;-79
2023/04/15 01:15:09;;;;;;;1999.90;999.90;;;8.10;99.90;;;;;;5093286;28;20452;-74
2023/04/15 01:17:38;;;;;;;1999.90;999.90;;;8.10;99.90;;;;;;5090751;28;20480;-76
2023/04/15 01:20:08;;;;;;;1999.90;999.90;;;8.10;99.90;;;;;;5085378;28;20431;-77
2023/04/15 01:22:35;;;;;;;1999.90;999.90;;;8.10;99.90;;;;;;5093691;28;20429;-77
2023/04/15 01:25:07;;;;;;;1999.90;999.90;;;8.00;99.90;;;;;;5094113;28;20499;-79
2023/04/15 01:27:35;;;;;;;1999.90;999.90;;;8.00;99.90;;;;;;5091484;28;20421;-76
2023/04/15 01:30:04;;;;;;;1999.90;999.90;;;7.90;99.90;;;;;;5093545;28;20974;-76
2023/04/15 01:32:30;;;;;;;1999.90;999.90;;;7.90;99.90;;;;;;5087031;28;20486;-81
2023/04/15 01:34:57;;;;;;;1999.90;999.90;;;7.90;99.90;;;;;;5093076;28;20428;-76
2023/04/15 01:37:24;;;;;;;1999.90;999.90;;;7.90;99.90;;;;;;5092684;28;20483;-75
2023/04/15 01:39:51;;;;;;;1999.90;999.90;;;7.80;99.90;;;;;;5085944;28;20429;-76
2023/04/15 01:42:18;;;;;;;1999.90;999.90;;;7.80;99.90;;;;;;5092086;28;20425;-76
2023/04/15 01:44:46;;;;;;;1999.90;999.90;;;7.80;99.90;;;;;;5091448;28;20424;-76
2023/04/15 01:47:13;;;;;;;1999.90;999.90;;;7.90;99.90;;;;;;5092434;28;20957;-74
2023/04/15 01:49:39;;;;;;;1999.90;999.90;;;7.90;99.90;;;;;;5092564;28;20467;-75
2023/04/15 01:52:06;;;;;;;1999.90;999.90;;;7.90;99.90;;;;;;5092784;28;20430;-76
2023/04/15 01:54:33;;;;;;;1999.90;999.90;;;8.00;99.90;;;;;;5090731;28;20433;-76
2023/04/15 01:57:01;;;;;;;1999.90;999.90;;;8.00;99.90;;;;;;5092775;28;20504;-77
2023/04/15 01:59:27;;;;;;;1999.90;999.90;;;8.00;99.90;;;;;;5091512;28;20514;-75
2023/04/15 02:01:56;;;;;;;1999.90;999.90;;;8.00;99.90;;;;;;5092974;28;20432;-75
2023/04/15 02:04:23;;;;;;;1999.90;999.90;;;7.90;99.90;;;;;;5091860;28;20481;-78
2023/04/15 02:06:49;;;;;;;1999.90;999.90;;;7.80;99.90;;;;;;5093030;28;20437;-76
2023/04/15 02:09:16;;;;;;;1999.90;999.90;;;7.90;99.90;;;;;;5082143;28;20427;-76
2023/04/15 02:11:43;;;;;;;1999.90;999.90;;;7.90;99.90;;;;;;5090622;28;20426;-74
2023/04/15 02:14:09;;;;;;;1999.90;999.90;;;8.00;99.90;;;;;;5091591;28;20421;-75
2023/04/15 02:16:36;;;;;;;1999.90;999.90;;;8.00;99.90;;;;;;5091130;28;20433;-75
2023/04/15 02:19:04;;;;;;;1999.90;999.90;;;8.00;99.90;;;;;;5090243;28;20933;-74
2023/04/15 02:21:31;;;;;;;1999.90;999.90;;;8.00;99.90;;;;;;5092026;28;20429;-74
2023/04/15 02:23:57;;;;;;;1999.90;999.90;;;8.00;99.90;;;;;;5091196;28;20434;-76
2023/04/15 02:26:24;;;;;;;1999.90;999.90;;;8.00;99.90;;;;;;5092217;28;20450;-78
2023/04/15 02:28:51;;;;;;;1999.90;999.90;;;8.00;99.90;;;;;;5091242;28;20421;-76
2023/04/15 02:31:18;;;;;;;1999.90;999.90;;;7.90;99.90;;;;;;5090608;28;20799;-77
2023/04/15 02:33:45;;;;;;;1999.90;999.90;;;7.90;99.90;;;;;;5090609;28;20483;-77
2023/04/15 02:36:13;;;;;;;1999.90;999.90;;;7.90;99.90;;;;;;5091663;28;20457;-76
2023/04/15 02:38:41;;;;;;;1999.90;999.90;;;7.90;99.90;;;;;;5089544;28;20803;-77
2023/04/15 02:41:09;;;;;;;1999.90;999.90;;;8.00;99.90;;;;;;5089467;28;20432;-75
2023/04/15 02:43:36;;;;;;;1999.90;999.90;;;8.00;99.90;;;;;;5083157;28;20437;-75
2023/04/15 02:46:02;;;;;;;1999.90;999.90;;;7.80;99.90;;;;;;5090658;28;20433;-77
2023/04/15 02:48:29;;;;;;;1999.90;999.90;;;7.90;99.90;;;;;;5090345;28;20437;-77
2023/04/15 02:51:13;;;;;;;1999.90;999.90;;;7.80;99.90;;;;;;5090123;28;20441;-76
2023/04/15 02:53:40;;;;;;;1999.90;999.90;;;7.90;99.90;;;;;;5083075;28;20430;-76
2023/04/15 02:56:07;;;;;;;1999.90;999.90;;;7.90;99.90;;;;;;5090289;28;20497;-76
2023/04/15 02:58:34;;;;;;;1999.90;999.90;;;7.90;99.90;;;;;;5089834;28;20436;-72
2023/04/15 03:01:01;;;;;;;1999.90;999.90;;;7.90;99.90;;;;;;5091496;28;20481;-74
2023/04/15 03:03:28;;;;;;;1999.90;999.90;;;7.90;99.90;;;;;;5090067;28;20475;-75
2023/04/15 03:05:54;;;;;;;1999.90;999.90;;;7.80;99.90;;;;;;5091508;28;20478;-72
2023/04/15 03:08:22;;;;;;;1999.90;999.90;;;7.80;99.90;;;;;;5091455;28;20912;-75
2023/04/15 03:10:51;;;;;;;1999.90;999.90;;;7.80;99.90;;;;;;5090850;28;20455;-77
2023/04/15 03:13:17;;;;;;;1999.90;999.90;;;7.80;99.90;;;;;;5091146;28;20430;-78
2023/04/15 03:15:46;;;;;;;1999.90;999.90;;;7.80;99.90;;;;;;5084879;28;20968;-74
2023/04/15 03:18:13;;;;;;;1999.90;999.90;;;7.80;99.90;;;;;;5091951;28;20430;-73
2023/04/15 03:20:40;;;;;;;1999.90;999.90;;;7.80;99.90;;;;;;5089253;28;20426;-75
2023/04/15 03:23:06;;;;;;;1999.90;999.90;;;7.70;99.90;;;;;;5090629;28;20437;-75
2023/04/15 03:25:36;;;;;;;1999.90;999.90;;;7.70;99.90;;;;;;5090962;28;20429;-74
2023/04/15 03:28:03;;;;;;;1999.90;999.90;;;7.70;99.90;;;;;;5090073;28;20426;-75
2023/04/15 03:30:29;;;;;;;1999.90;999.90;;;7.70;99.90;;;;;;5089719;28;20556;-77
2023/04/15 03:32:56;;;;;;;1999.90;999.90;;;7.70;99.90;;;;;;5089552;28;20435;-76
2023/04/15 03:35:23;;;;;;;1999.90;999.90;;;7.60;99.90;;;;;;5089851;28;20432;-75
2023/04/15 03:37:49;;;;;;;1999.90;999.90;;;7.70;99.90;;;;;;5089604;28;20916;-76
2023/04/15 03:40:16;;;;;;;1999.90;999.90;;;7.70;99.90;;;;;;5089584;28;20519;-76
2023/04/15 03:42:44;;;;;;;1999.90;999.90;;;7.80;99.90;;;;;;5090964;28;20467;-75
2023/04/15 03:45:11;;;;;;;1999.90;999.90;;;7.80;99.90;;;;;;5089655;28;20781;-74
2023/04/15 03:47:38;;;;;;;1999.90;999.90;;;7.80;99.90;;;;;;5088123;28;20473;-76
2023/04/15 03:50:06;;;;;;;1999.90;999.90;;;7.80;99.90;;;;;;5090953;28;20487;-76
2023/04/15 03:52:32;;;;;;;1999.90;999.90;;;7.70;99.90;;;;;;5089292;28;20911;-75
2023/04/15 03:54:59;;;;;;;1999.90;999.90;;;7.70;99.90;;;;;;5089117;28;20430;-77
2023/04/15 03:57:26;;;;;;;1999.90;999.90;;;7.70;99.90;;;;;;5090311;28;20429;-69
2023/04/15 03:59:54;;;;;;;1999.90;999.90;;;7.70;99.90;;;;;;5090294;28;20421;-73
2023/04/15 04:02:21;;;;;;;1999.90;999.90;;;7.70;99.90;;;;;;5089907;28;20491;-76
2023/04/15 04:04:48;;;;;;;1999.90;999.90;;;7.70;99.90;;;;;;5088179;28;20871;-74
2023/04/15 04:07:16;;;;;;;1999.90;999.90;;;7.70;99.90;;;;;;5090698;28;20426;-75
2023/04/15 04:09:42;;;;;;;1999.90;999.90;;;7.60;99.90;;;;;;5091156;28;20507;-74
2023/04/15 04:12:09;;;;;;;1999.90;999.90;;;7.60;99.90;;;;;;5090117;28;20938;-73
2023/04/15 04:14:36;;;;;;;1999.90;999.90;;;7.60;99.90;;;;;;5089722;28;20417;-74
2023/04/15 04:17:04;;;;;;;1999.90;999.90;;;7.50;99.90;;;;;;5089434;28;20434;-75
2023/04/15 04:19:30;;;;;;;1999.90;999.90;;;7.50;99.90;;;;;;5090324;28;20425;-76
2023/04/15 04:21:57;;;;;;;1999.90;999.90;;;7.50;99.90;;;;;;5090174;28;20433;-75
2023/04/15 04:24:24;;;;;;;1999.90;999.90;;;7.50;99.90;;;;;;5088661;28;20861;-75
2023/04/15 04:26:51;;;;;;;1999.90;999.90;;;7.50;99.90;;;;;;5091177;28;20429;-78
2023/04/15 04:29:18;;;;;;;1999.90;999.90;;;7.50;99.90;;;;;;5090699;28;20429;-76
2023/04/15 04:31:45;;;;;;;1999.90;999.90;;;7.50;99.90;;;;;;5090341;28;20479;-77
2023/04/15 04:34:13;;;;;;;1999.90;999.90;;;7.50;99.90;;;;;;5088800;28;20426;-73
2023/04/15 04:36:40;;;;;;;1999.90;999.90;;;7.60;99.90;;;;;;5082423;28;20435;-71
2023/04/15 04:39:07;;;;;;;1999.90;999.90;;;7.50;99.90;;;;;;5090158;28;20484;-76
2023/04/15 04:41:33;;;;;;;1999.90;999.90;;;7.50;99.90;;;;;;5089932;28;20923;-75
2023/04/15 04:44:00;;;;;;;1999.90;999.90;;;7.50;99.90;;;;;;5088122;28;21004;-75
2023/04/15 04:46:27;;;;;;;1999.90;999.90;;;7.50;99.90;;;;;;5089088;28;20992;-73
2023/04/15 04:48:53;;;;;;;1999.90;999.90;;;7.60;99.90;;;;;;5090461;28;20854;-76
2023/04/15 04:51:21;;;;;;;1999.90;999.90;;;7.50;99.90;;;;;;5089949;28;20437;-77
2023/04/15 04:53:48;;;;;;;1999.90;999.90;;;7.60;99.90;;;;;;5088568;28;20434;-76
2023/04/15 04:56:15;;;;;;;1999.90;999.90;;;7.60;99.90;;;;;;5088690;28;20438;-78
2023/04/15 04:58:42;;;;;;;1999.90;999.90;;;7.60;99.90;;;;;;5082634;28;20452;-76
2023/04/15 05:01:08;;;;;;;1999.90;999.90;;;7.60;99.90;;;;;;5089401;28;20558;-76
2023/04/15 05:03:35;;;;;;;1999.90;999.90;;;7.50;99.90;;;;;;5088591;28;20432;-75
2023/04/15 05:06:05;;;;;;;1999.90;999.90;;;7.50;99.90;;;;;;5088997;28;20430;-73
2023/04/15 05:08:33;;;;;;;1999.90;999.90;;;7.60;99.90;;;;;;5091871;28;20904;-76
2023/04/15 05:10:59;;;;;;;1999.90;999.90;;;7.60;99.90;;;;;;5093150;28;20426;-73
2023/04/15 05:13:26;;;;;;;1999.90;999.90;;;7.50;99.90;;;;;;5092705;28;20480;-76
2023/04/15 05:15:53;;;;;;;1999.90;999.90;;;7.60;99.90;;;;;;5092243;28;20476;-73
2023/04/15 05:18:20;;;;;;;1999.90;999.90;;;7.60;99.90;;;;;;5092855;28;20954;-73
2023/04/15 05:20:48;;;;;;;1999.90;999.90;;;7.60;99.90;;;;;;5093474;28;20457;-76
2023/04/15 05:23:15;;;;;;;1999.90;999.90;;;7.60;99.90;;;;;;5092757;28;20426;-75
2023/04/15 05:25:43;;;;;;;1999.90;999.90;;;7.60;99.90;;;;;;5092782;28;20475;-74
2023/04/15 05:28:11;;;;;;;1999.90;999.90;;;7.70;99.90;;;;;;5092874;28;20463;-76
2023/04/15 05:30:38;;;;;;;1999.90;999.90;;;7.60;99.90;;;;;;5091169;28;20426;-75
2023/04/15 05:33:05;;;;;;;1999.90;999.90;;;7.60;99.90;;;;;;5093045;28;20486;-75
2023/04/15 05:35:31;;;;;;;1999.90;999.90;;;7.70;99.90;;;;;;5091776;28;20437;-74
2023/04/15 05:37:58;;;;;;;1999.90;999.90;;;7.70;99.90;;;;;;5093372;28;20544;-75
2023/04/15 05:40:25;;;;;;;1999.90;999.90;;;7.70;99.90;;;;;;5092885;28;20421;-76
2023/04/15 05:42:53;;;;;;;1999.90;999.90;;;7.60;99.90;;;;;;5093538;28;20437;-76
2023/04/15 05:45:20;;;;;;;1999.90;999.90;;;7.60;99.90;;;;;;5091677;28;20550;-73
2023/04/15 05:47:49;;;;;;;1999.90;999.90;;;7.60;99.90;;;;;;5095067;28;20437;-78
2023/04/15 05:50:16;;;;;;;1999.90;999.90;;;7.60;99.90;;;;;;5091619;28;20850;-75
2023/04/15 05:52:42;;;;;;;1999.90;999.90;;;7.50;99.90;;;;;;5094170;28;20433;-75
2023/04/15 05:55:09;;;;;;;1999.90;999.90;;;7.50;99.90;;;;;;5092484;28;20429;-73
2023/04/15 05:57:36;;;;;;;1999.90;999.90;;;7.50;99.90;;;;;;5094030;28;20456;-78
2023/04/15 06:00:06;;;;;;;1999.90;999.90;;;7.50;99.90;;;;;;5094395;28;20451;-76
2023/04/15 06:02:32;;;;;;;1999.90;999.90;;;7.50;99.90;;;;;;5092369;28;20456;-77
2023/04/15 06:04:59;;;;;;;1999.90;999.90;;;7.50;99.90;;;;;;5092854;28;20448;-77
2023/04/15 06:07:26;;;;;;;1999.90;999.90;;;7.50;99.90;;;;;;5086654;28;20489;-75
2023/04/15 06:09:53;;;;;;;1999.90;999.90;;;7.50;99.90;;;;;;5090563;28;20430;-76
2023/04/15 06:12:20;;;;;;;1999.90;999.90;;;7.50;99.90;;;;;;5093512;28;20532;-77
2023/04/15 06:14:46;;;;;;;1999.90;999.90;;;7.50;99.90;;;;;;5091372;28;20448;-75
2023/04/15 06:17:17;;;;;;;1999.90;999.90;;;7.60;99.90;;;;;;5093147;28;21090;-74
2023/04/15 06:19:43;;;;;;;1999.90;999.90;;;7.60;99.90;;;;;;5086107;28;20505;-79
2023/04/15 06:22:10;;;;;;;1999.90;999.90;;;7.60;99.90;;;;;;5076197;28;20958;-77
2023/04/15 06:24:37;;;;;;;1999.90;999.90;;;7.60;99.90;;;;;;5078146;28;20525;-76
2023/04/15 06:27:04;;;;;;;1999.90;999.90;;;7.70;99.90;;;;;;5097817;28;20414;-76
2023/04/15 06:29:30;;;;;;;1999.90;999.90;;;7.60;99.90;;;;;;5086859;28;20426;-78
2023/04/15 06:31:57;;;;;;;1999.90;999.90;;;7.70;99.90;;;;;;5096278;28;20421;-79
2023/04/15 06:34:26;;;;;;;1999.90;999.90;;;7.60;99.90;;;;;;5095937;28;20886;-73
2023/04/15 06:36:53;;;;;;;1999.90;999.90;;;7.60;99.90;;;;;;5096650;28;20424;-80
2023/04/15 06:39:20;;;;;;;1999.90;999.90;;;7.70;99.90;;;;;;5087274;28;20505;-77
2023/04/15 06:41:46;;;;;;;1999.90;999.90;;;7.70;99.90;;;;;;5075073;28;20438;-80
2023/04/15 06:44:13;;;;;;;1999.90;999.90;;;7.70;99.90;;;;;;5075684;28;20420;-78
2023/04/15 06:46:40;;;;;;;1999.90;999.90;;;7.80;99.90;;;;;;5077535;28;20462;-72
2023/04/15 06:49:07;;;;;;;1999.90;999.90;;;7.80;99.90;;;;;;5080499;28;20848;-77
2023/04/15 06:51:36;;;;;;;1999.90;999.90;;;7.70;99.90;;;;;;5092489;28;20435;-74
2023/04/15 06:54:04;;;;;;;1999.90;999.90;;;7.70;99.90;;;;;;5093865;28;20482;-77
2023/04/15 06:56:31;;;;;;;1999.90;999.90;;;7.80;99.90;;;;;;5093336;28;20527;-76
2023/04/15 06:58:58;;;;;;;1999.90;999.90;;;7.90;99.90;;;;;;5084534;28;20455;-73
2023/04/15 07:01:24;;;;;;;1999.90;999.90;;;7.80;99.90;;;;;;5078047;28;20455;-75
2023/04/15 07:03:51;;;;;;;1999.90;999.90;;;7.90;99.90;;;;;;5076669;28;20818;-76
2023/04/15 07:06:18;;;;;;;1999.90;999.90;;;7.90;99.90;;;;;;5091356;28;20538;-75
2023/04/15 07:08:46;;;;;;;1999.90;999.90;;;7.90;99.90;;;;;;5094098;28;20428;-77
2023/04/15 07:11:13;;;;;;;1999.90;999.90;;;7.80;99.90;;;;;;5092125;28;20414;-77
2023/04/15 07:13:39;;;;;;;1999.90;999.90;;;7.80;99.90;;;;;;5092498;28;20884;-78
2023/04/15 07:16:07;;;;;;;1999.90;999.90;;;7.90;99.90;;;;;;5088232;28;20521;-75
2023/04/15 07:18:34;;;;;;;1999.90;999.90;;;7.80;99.90;;;;;;5088954;28;20532;-77
2023/04/15 07:21:01;;;;;;;1999.90;999.90;;;7.70;99.90;;;;;;5090019;28;20437;-76
2023/04/15 07:23:28;;;;;;;1999.90;999.90;;;7.90;99.90;;;;;;5081954;28;20501;-79
2023/04/15 07:25:56;;;;;;;1999.90;999.90;;;7.90;99.90;;;;;;5079462;28;20412;-78
2023/04/15 07:28:23;;;;;;;1999.90;999.90;;;7.90;99.90;;;;;;5089955;28;20513;-78
2023/04/15 07:30:50;;;;;;;1999.90;999.90;;;7.90;99.90;;;;;;5085817;28;22278;-76
2023/04/15 07:33:16;;;;;;;1999.90;999.90;;;7.90;99.90;;;;;;5082585;28;20827;-77
2023/04/15 07:35:44;;;;;;;1999.90;999.90;;;8.00;99.90;;;;;;5070936;28;20411;-75
2023/04/15 07:38:11;;;;;;;1999.90;999.90;;;8.00;99.90;;;;;;5077525;28;20414;-76
2023/04/15 07:40:39;;;;;;;1999.90;999.90;;;8.00;99.90;;;;;;5089516;28;20425;-75
2023/04/15 07:43:07;;;;;;;1999.90;999.90;;;8.00;99.90;;;;;;5077006;28;20492;-77
2023/04/15 07:45:34;;;;;;;1999.90;999.90;;;8.00;99.90;;;;;;5092140;28;20418;-76
2023/04/15 07:48:01;;;;;;;1999.90;999.90;;;8.10;99.90;;;;;;5092747;28;20414;-76
2023/04/15 07:50:29;;;;;;;1999.90;999.90;;;8.10;99.90;;;;;;5091226;28;20890;-71
2023/04/15 07:52:56;;;;;;;1999.90;999.90;;;8.10;99.90;;;;;;5081800;28;20438;-75
2023/04/15 07:55:23;;;;;;;1999.90;999.90;;;8.00;99.90;;;;;;5092025;28;20436;-75
2023/04/15 07:57:50;;;;;;;1999.90;999.90;;;8.00;99.90;;;;;;5086177;28;20495;-76
2023/04/15 08:00:19;;;;;;;1999.90;999.90;;;8.00;99.90;;;;;;5087689;28;20425;-75
2023/04/15 08:02:47;;;;;;;1999.90;999.90;;;8.00;99.90;;;;;;5087665;28;20491;-75
2023/04/15 08:05:14;;;;;;;1999.90;999.90;;;8.00;99.90;;;;;;5080939;28;20438;-75
2023/04/15 08:07:41;;;;;;;1999.90;999.90;;;8.00;99.90;;;;;;5082976;28;20486;-76
2023/04/15 08:10:08;;;;;;;1999.90;999.90;;;8.00;99.90;;;;;;5080407;28;20415;-73
2023/04/15 08:12:35;;;;;;;1999.90;999.90;;;8.00;99.90;;;;;;5086773;28;20477;-77
2023/04/15 08:15:02;;;;;;;1999.90;999.90;;;8.00;99.90;;;;;;5090537;28;20491;-76
2023/04/15 08:17:30;;;;;;;1999.90;999.90;;;8.10;99.90;;;;;;5093695;28;20830;-77
2023/04/15 08:19:57;;;;;;;1999.90;999.90;;;8.10;99.90;;;;;;5096897;28;20498;-80
2023/04/15 08:22:24;;;;;;;1999.90;999.90;;;8.10;99.90;;;;;;5095299;28;20434;-77
2023/04/15 08:24:51;;;;;;;1999.90;999.90;;;8.10;99.90;;;;;;5092538;28;20493;-76
2023/04/15 08:27:18;;;;;;;1999.90;999.90;;;8.10;99.90;;;;;;5089895;28;20449;-78
2023/04/15 08:29:45;;;;;;;1999.90;999.90;;;8.00;99.90;;;;;;5083271;28;20426;-77
2023/04/15 08:32:11;;;;;;;1999.90;999.90;;;8.00;99.90;;;;;;5089446;28;20526;-77
2023/04/15 08:34:40;;;;;;;1999.90;999.90;;;8.10;99.90;;;;;;5090597;28;20499;-75
2023/04/15 08:37:07;;;;;;;1999.90;999.90;;;8.10;99.90;;;;;;5090353;28;20433;-73
2023/04/15 08:39:33;;;;;;;1999.90;999.90;;;8.10;99.90;;;;;;5090141;28;20440;-75
2023/04/15 08:42:02;;;;;;;1999.90;999.90;;;8.10;99.90;;;;;;5094055;28;20425;-78
2023/04/15 08:44:30;;;;;;;1999.90;999.90;;;8.00;99.90;;;;;;5094078;28;20438;-76
2023/04/15 08:47:01;;;;;;;1999.90;999.90;;;8.00;99.90;;;;;;5092570;28;20862;-76
2023/04/15 08:49:28;;;;;;;1999.90;999.90;;;8.10;99.90;;;;;;5094386;28;20430;-76
2023/04/15 08:51:59;;;;;;;1999.90;999.90;;;8.10;99.90;;;;;;5088336;28;20426;-76
2023/04/15 08:54:26;;;;;;;1999.90;999.90;;;8.20;99.90;;;;;;5093671;28;20837;-73
2023/04/15 08:56:54;;;;;;;1999.90;999.90;;;8.30;99.90;;;;;;5091135;28;20876;-74
2023/04/15 08:59:21;;;;;;;1999.90;999.90;;;8.20;99.90;;;;;;5093053;28;20440;-75
2023/04/15 09:01:50;;;;;;;1999.90;999.90;;;8.30;99.90;;;;;;5092407;28;20563;-74
2023/04/15 09:04:17;;;;;;;1999.90;999.90;;;8.30;99.90;;;;;;5092525;28;20433;-73
2023/04/15 09:06:43;;;;;;;1999.90;999.90;;;8.30;99.90;;;;;;5091774;28;20433;-76
2023/04/15 09:09:13;;;;;;;1999.90;999.90;;;8.40;99.90;;;;;;5092657;28;20429;-73
2023/04/15 09:11:40;;;;;;;1999.90;999.90;;;8.40;99.90;;;;;;5091896;28;20457;-73
2023/04/15 09:14:07;;;;;;;1999.90;999.90;;;8.40;99.90;;;;;;5091700;28;20510;-71
2023/04/15 09:16:57;;;;;;;1999.90;999.90;;;8.30;99.90;;;;;;5092351;28;20425;-68
2023/04/15 09:19:25;;;;;;;1999.90;999.90;;;8.30;99.90;;;;;;5092784;28;20432;-73
2023/04/15 09:21:54;;;;;;;1999.90;999.90;;;8.30;99.90;;;;;;5091599;28;20852;-76
2023/04/15 09:24:20;;;;;;;1999.90;999.90;;;8.30;99.90;;;;;;5092331;28;20438;-74
2023/04/15 09:26:47;;;;;;;1999.90;999.90;;;8.30;99.90;;;;;;5086539;28;20430;-75
2023/04/15 09:29:14;;;;;;;1999.90;999.90;;;8.30;99.90;;;;;;5092366;28;20451;-75
2023/04/15 09:31:42;;;;;;;1999.90;999.90;;;8.40;99.90;;;;;;5088505;28;20434;-74
2023/04/15 09:34:10;;;;;;;1999.90;999.90;;;8.40;99.90;;;;;;5089977;28;20795;-75
2023/04/15 09:36:53;;;;;;;1999.90;999.90;;;8.40;99.90;;;;;;5085697;28;20882;-73
2023/04/15 09:39:21;;;;;;;1999.90;999.90;;;8.40;99.90;;;;;;5082897;28;20736;-75
2023/04/15 09:41:47;;;;;;;1999.90;999.90;;;8.40;99.90;;;;;;5084988;28;20498;-72
2023/04/15 09:44:24;;;;;;;1999.90;999.90;;;8.50;99.90;;;;;;5077600;28;20431;-73
2023/04/15 09:46:50;;;;;;;1999.90;999.90;;;8.40;99.90;;;;;;5078620;28;20431;-73
2023/04/15 09:49:19;;;;;;;1999.90;999.90;;;8.40;99.90;;;;;;5086668;28;20430;-75
2023/04/15 09:51:48;;;;;;;1999.90;999.90;;;8.50;99.90;;;;;;5091180;28;20422;-75
2023/04/15 09:54:19;;;;;;;1999.90;999.90;;;8.50;99.90;;;;;;5084345;28;20446;-77
2023/04/15 09:57:54;;;;;;;1999.90;999.90;;;8.60;99.90;;;;;;5107488;27;20373;-76
2023/04/15 10:00:21;;;;;;;1999.90;999.90;;;8.60;99.90;;;;;;5109762;28;20413;-75
2023/04/15 10:02:48;;;;;;;1999.90;999.90;;;8.60;99.90;;;;;;5109964;28;20417;-78
2023/04/15 10:05:16;;;;;;;1999.90;999.90;;;8.60;99.90;;;;;;5109595;28;20414;-76
2023/04/15 10:07:43;;;;;;;1999.90;999.90;;;8.50;99.90;;;;;;5087590;28;20422;-75
2023/04/15 10:10:11;;;;;;;1999.90;999.90;;;8.50;99.90;;;;;;5089621;28;20468;-75
2023/04/15 10:12:41;;;;;;;1999.90;999.90;;;8.50;99.90;;;;;;5086699;28;20419;-74
2023/04/15 10:15:16;;;;;;;1999.90;999.90;;;8.50;99.90;;;;;;5089050;28;20470;-75
2023/04/15 10:17:45;;;;;;;1999.90;999.90;;;8.50;99.90;;;;;;5087596;28;20449;-74
2023/04/15 10:20:13;;;;;;;1999.90;999.90;;;8.50;99.90;;;;;;5089162;28;20763;-74
2023/04/15 10:22:41;;;;;;;1999.90;999.90;;;8.50;99.90;;;;;;5085197;28;20431;-79
2023/04/15 10:25:10;;;;;;;1999.90;999.90;;;8.50;99.90;;;;;;5089316;28;20835;-77
2023/04/15 10:27:37;;;;;;;1999.90;999.90;;;8.50;99.90;;;;;;5087473;28;20426;-72
2023/04/15 10:30:05;;;;;;;1999.90;999.90;;;8.50;99.90;;;;;;5088696;28;20437;-70
2023/04/15 10:32:33;;;;;;;1999.90;999.90;;;8.60;99.90;;;;;;5088656;28;20410;-75
2023/04/15 10:35:01;;;;;;;1999.90;999.90;;;8.60;99.90;;;;;;5085141;28;20438;-76
2023/04/15 10:37:35;;;;;;;1999.90;999.90;;;8.60;99.90;;;;;;5083359;28;20942;-76
2023/04/15 10:40:22;;;;;;;1999.90;999.90;;;8.60;99.90;;;;;;5085713;28;20458;-75
2023/04/15 10:42:49;;;;;;;1999.90;999.90;;;8.60;99.90;;;;;;5083389;28;21640;-77
2023/04/15 10:45:17;;;;;;;1999.90;999.90;;;8.70;99.90;;;;;;5084988;28;20426;-75
2023/04/15 10:47:45;;;;;;;1999.90;999.90;;;8.70;99.90;;;;;;5087151;28;20913;-77
2023/04/15 10:50:12;;;;;;;1999.90;999.90;;;8.80;99.90;;;;;;5087271;28;20436;-75
2023/04/15 10:52:41;;;;;;;1999.90;999.90;;;8.70;99.90;;;;;;5087539;28;20431;-77
2023/04/15 10:55:14;;;;;;;1999.90;999.90;;;8.70;99.90;;;;;;5087655;28;20406;-75
2023/04/15 10:57:43;;;;;;;1999.90;999.90;;;8.70;99.90;;;;;;5103002;28;20501;-74
2023/04/15 11:00:15;;;;;;;1999.90;999.90;;;8.70;99.90;;;;;;5108628;28;20905;-76
2023/04/15 11:02:45;;;;;;;1999.90;999.90;;;8.70;99.90;;;;;;5108947;28;20421;-75
2023/04/15 11:05:13;;;;;;;1999.90;999.90;;;8.70;99.90;;;;;;5106525;28;20413;-73
2023/04/15 11:07:48;;;;;;;1999.90;999.90;;;8.70;99.90;;;;;;5102017;28;20437;-76
2023/04/15 11:10:54;;;;;;;1999.90;999.90;;;8.70;99.90;;;;;;5094400;28;20446;-74
2023/04/15 11:13:28;;;;;;;1999.90;999.90;;;8.80;99.90;;;;;;5095024;28;20414;-78
2023/04/15 11:16:02;;;;;;;1999.90;999.90;;;8.80;99.90;;;;;;5093787;28;20772;-73
2023/04/15 11:18:32;;;;;;;1999.90;999.90;;;8.90;99.90;;;;;;5090314;28;20860;-76
2023/04/15 11:21:02;;;;;;;1999.90;999.90;;;8.90;99.90;;;;;;5091235;28;20870;-77
2023/04/15 11:23:31;;;;;;;1999.90;999.90;;;8.90;99.90;;;;;;5090138;28;20815;-74
2023/04/15 11:25:58;;;;;;;1999.90;999.90;;;8.90;99.90;;;;;;5092120;28;20429;-74
2023/04/15 11:28:26;;;;;;;1999.90;999.90;;;8.90;99.90;;;;;;5091679;28;20421;-76
2023/04/15 11:30:54;;;;;;;1999.90;999.90;;;9.00;99.90;;;;;;5088376;28;20433;-75
2023/04/15 11:33:21;;;;;;;1999.90;999.90;;;9.00;99.90;;;;;;5091233;28;20444;-72
2023/04/15 11:35:50;;;;;;;1999.90;999.90;;;9.00;99.90;;;;;;5091563;28;20426;-75
2023/04/15 11:38:17;;;;;;;1999.90;999.90;;;9.00;99.90;;;;;;5089960;28;20935;-78
2023/04/15 11:40:44;;;;;;;1999.90;999.90;;;9.10;99.90;;;;;;5090420;28;20461;-74
2023/04/15 11:43:12;;;;;;;1999.90;999.90;;;9.00;99.90;;;;;;5092029;28;20430;-77
2023/04/15 11:45:50;;;;;;;1999.90;999.90;;;9.10;99.90;;;;;;5089532;28;20869;-77
2023/04/15 11:48:17;;;;;;;1999.90;999.90;;;9.10;99.90;;;;;;5091132;28;20871;-75
2023/04/15 11:50:44;;;;;;;1999.90;999.90;;;9.20;99.90;;;;;;5091548;28;20429;-75
2023/04/15 11:53:14;;;;;;;1999.90;999.90;;;9.10;99.90;;;;;;5090130;28;20477;-78
2023/04/15 11:55:43;;;;;;;1999.90;999.90;;;9.10;99.90;;;;;;5090083;28;21127;-75
2023/04/15 11:58:11;;;;;;;1999.90;999.90;;;9.10;99.90;;;;;;5091793;28;20471;-78
2023/04/15 12:00:39;;;;;;;1999.90;999.90;;;9.10;99.90;;;;;;5089695;28;20430;-76
2023/04/15 12:03:20;;;;;;;1999.90;999.90;;;9.00;99.90;;;;;;5088814;28;20461;-77
2023/04/15 12:06:11;;;;;;;1999.90;999.90;;;9.10;99.90;;;;;;5088963;28;20436;-76
2023/04/15 12:09:00;;;;;;;1999.90;999.90;;;9.10;99.90;;;;;;5090804;28;20465;-74
2023/04/15 12:11:32;;;;;;;1999.90;999.90;;;9.10;99.90;;;;;;5084982;28;20429;-77
2023/04/15 12:14:04;;;;;;;1999.90;999.90;;;9.10;99.90;;;;;;5090328;28;20430;-78